Latest Coastal Weather Observations for Neptune Island

IDT60701

Issued at 9:51 am EST Sunday 29 May 2016 (issued every 10 minutes, with the page automatically refreshed every 10 minutes)

About coastal observations | Map of coastal stations | Coastal observations for TAS | Marine services | Other Formats
Station Details ID: 018115 Name: NEPTUNE ISLAND Lat: -35.34 Lon: 136.12 Height: 32.0 m
Data from the previous 72 hours. | See also: Recent months at Neptune Island
Date/Time
EST
Temp

°C
Wind Pressure Rain
since 9am
mm
Weather Cloud Vis
km
Sea
Height
m
Swell
Dir
 
Speed
knots
Gust
knots
hPa Trend Height
m
Period
s
Dir
29/09:30am 15.3 N 20 22 1016.1 - 0.0 - - - - - - -
29/09:00am 15.0 N 19 22 1015.9 - 0.0 - - - - - - -
29/08:30am 15.0 N 18 21 1015.8 - 0.0 - - - - - - -
29/08:00am 15.0 N 17 20 1015.8 - 0.0 - - - - - - -
29/07:30am 15.2 NNE 18 21 1015.8 - 0.0 - - - - - - -
29/07:00am 14.8 NNE 17 21 1015.6 - 0.0 - - - - - - -
29/06:30am 14.8 NNE 17 19 1015.8 - 0.0 - - - - - - -
29/06:00am 14.7 N 18 21 1015.8 - 0.0 - - - - - - -
29/05:30am 14.8 N 17 21 1015.6 - 0.0 - - - - - - -
29/05:00am 14.7 NNE 17 21 1015.7 - 0.0 - - - - - - -
29/04:30am 14.6 NNE 16 19 1015.8 - 0.0 - - - - - - -
29/04:00am 14.5 NNE 16 19 1016.0 - 0.0 - - - - - - -
29/03:30am 14.5 NNE 16 18 1016.1 - 0.0 - - - - - - -
29/03:00am 14.3 NNE 13 17 1016.3 - 0.0 - - - - - - -
29/02:30am 14.2 NNE 12 14 1016.4 - 0.0 - - - - - - -
29/02:00am 14.0 NE 9 12 1016.5 - 0.0 - - - - - - -
29/01:30am 14.1 NE 8 10 1016.6 - 0.0 - - - - - - -
29/01:00am 13.6 NNE 8 11 1017.0 - 0.0 - - - - - - -
29/12:30am 13.0 NNE 7 8 1017.4 - 0.0 - - - - - - -
29/12:00am 13.6 CALM 0 0 1017.5 - 0.0 - - - - - - -
 
Date/Time
EST
Temp

°C
Wind Pressure Rain
since 9am
mm
Weather Cloud Vis
km
Sea
Height
m
Swell
Dir
 
Speed
knots
Gust
knots
hPa Trend Height
m
Period
s
Dir
28/11:30pm 13.7 NNE 3 5 1017.7 - 0.0 - - - - - - -
28/11:00pm 13.6 ENE 3 4 1017.6 - 0.0 - - - - - - -
28/10:30pm 13.6 ENE 2 4 1017.8 - 0.0 - - - - - - -
28/10:00pm 13.8 ESE 1 3 1017.9 - 0.0 - - - - - - -
28/09:30pm 13.3 ESE 3 4 1017.9 - 0.0 - - - - - - -
28/09:00pm 13.4 ESE 3 5 1017.9 - 0.0 - - - - - - -
28/08:30pm 13.8 SE 2 5 1017.8 - 0.0 - - - - - - -
28/08:00pm 13.3 SE 6 8 1017.6 - 0.0 - - - - - - -
28/07:30pm 13.7 SSW 3 5 1017.5 - 0.0 - - - - - - -
28/07:00pm 13.9 WSW 3 5 1017.6 - 0.0 - - - - - - -
28/06:30pm 13.9 SW 5 6 1017.4 - 0.0 - - - - - - -
28/06:00pm 14.1 SSW 4 5 1017.3 - 0.0 - - - - - - -
28/05:30pm 14.6 SSW 3 6 1017.2 - 0.0 - - - - - - -
28/05:00pm 15.4 SW 5 7 1017.0 - 0.0 - - - - - - -
28/04:30pm 15.7 WSW 4 8 1017.1 - 0.0 - - - - - - -
28/04:00pm 16.0 SW 5 7 1017.1 - 0.0 - - - - - - -
28/03:30pm 15.9 S 6 7 1016.9 - 0.0 - - - - - - -
28/03:00pm 16.2 SSW 5 7 1016.8 - 0.0 - - - - - - -
28/02:30pm 15.5 S 6 8 1016.8 - 0.0 - - - - - - -
28/02:00pm 16.2 SSW 4 6 1016.8 - 0.0 - - - - - - -
28/01:30pm 15.8 SSW 7 8 1016.9 - 0.0 - - - - - - -
28/01:00pm 16.1 S 6 8 1017.1 - 0.0 - - - - - - -
28/12:30pm 15.8 S 8 9 1017.3 - 0.0 - - - - - - -
28/12:00pm 16.0 SSE 8 11 1017.5 - 0.0 - - - - - - -
28/11:30am 15.3 S 9 12 1017.7 - 0.0 - - - - - - -
28/11:00am 15.6 S 11 14 1017.9 - 0.0 - - - - - - -
28/10:30am 15.4 S 13 17 1017.8 - 0.0 - - - - - - -
28/10:00am 15.2 SSE 14 18 1017.6 - 0.0 - - - - - - -
28/09:30am 14.8 S 17 21 1017.0 - 5.6 - - - - - - -
28/09:00am 14.7 S 17 22 1016.6 - 5.6 - - - - - - -
28/08:30am 14.3 SSE 16 21 1016.2 - 5.6 - - - - - - -
28/08:00am 14.3 SSE 17 22 1016.0 - 5.6 - - - - - - -
28/07:30am 14.6 S 20 25 1015.6 - 5.6 - - - - - - -
28/07:00am 14.0 SSE 16 21 1015.3 - 5.6 - - - - - - -
28/06:30am 14.2 SSE 17 23 1015.1 - 5.6 Recent precip. - - - - - -
28/06:00am 14.3 SSE 16 22 1014.8 - 5.4 - - - - - - -
28/05:30am 14.4 S 20 24 1014.2 - 5.4 - - - - - - -
28/05:07am 14.3 SSE 15 25 1013.9 - 5.4 - - - - - - -
28/05:00am 14.4 SSE 15 20 1014.0 - 5.4 - - - - - - -
28/04:30am 14.1 S 23 28 1013.3 - 5.4 - - - - - - -
28/04:00am 13.8 SSE 22 31 1013.2 - 5.4 - - - - - - -
28/03:56am 14.3 SSE 20 30 1013.1 - 5.4 - - - - - - -
28/03:30am 14.8 S 26 30 1013.1 - 5.4 - - - - - - -
28/03:00am 15.0 S 24 30 1012.9 - 5.4 - - - - - - -
28/02:30am 14.8 S 24 30 1012.3 - 5.4 - - - - - - -
28/02:00am 14.4 S 22 28 1012.0 - 5.4 - - - - - - -
28/01:43am 14.1 S 21 32 1011.9 - 5.4 - - - - - - -
28/01:30am 14.0 S 27 34 1012.0 - 5.4 - - - - - - -
28/01:00am 14.9 SSW 25 29 1011.6 - 5.4 - - - - - - -
28/12:30am 14.9 S 25 33 1011.1 - 5.4 - - - - - - -
28/12:00am 14.7 S 27 33 1010.4 - 5.4 - - - - - - -
 
Date/Time
EST
Temp

°C
Wind Pressure Rain
since 9am
mm
Weather Cloud Vis
km
Sea
Height
m
Swell
Dir
 
Speed
knots
Gust
knots
hPa Trend Height
m
Period
s
Dir
27/11:42pm 14.7 S 26 36 1010.2 - 5.4 - - - - - - -
27/11:30pm 14.6 SSW 28 36 1009.8 - 5.4 - - - - - - -
27/11:00pm 14.4 SSW 30 39 1009.1 - 5.4 - - - - - - -
27/10:30pm 14.2 SW 31 38 1008.8 - 5.2 - - - - - - -
27/10:00pm 14.0 WSW 30 40 1008.7 - 4.4 - - - - - - -
27/09:44pm 13.2 WSW 32 42 1008.8 - 4.2 - - - - - - -
27/09:30pm 13.8 WSW 35 42 1009.1 - 3.8 Rain - - - - - -
27/09:12pm 13.6 WSW 37 47 1008.8 - 3.6 - - - - - - -
27/09:00pm 14.1 WSW 36 43 1009.1 - 3.6 - - - - - - -
27/08:45pm 14.1 WSW 31 41 1009.2 - 3.6 - - - - - - -
27/08:41pm 13.6 WSW 34 45 1009.4 - 3.6 - - - - - - -
27/08:34pm 13.5 WSW 38 50 1009.3 - 3.6 - - - - - - -
27/08:30pm 13.9 WSW 36 50 1009.0 - 3.6 - - - - - - -
27/08:21pm 13.9 WSW 31 44 1009.3 - 3.6 - - - - - - -
27/08:00pm 14.4 WSW 33 41 1009.2 - 3.6 - - - - - - -
27/07:42pm 14.5 WSW 35 45 1009.2 - 3.6 - - - - - - -
27/07:30pm 14.2 SW 34 42 1009.1 - 3.6 - - - - - - -
27/07:00pm 14.5 SW 37 43 1008.9 - 3.6 - - - - - - -
27/06:30pm 14.4 SW 33 40 1008.7 - 3.6 - - - - - - -
27/06:00pm 14.3 SW 37 44 1008.4 - 3.6 - - - - - - -
27/05:46pm 14.2 SW 31 42 1008.1 - 3.6 - - - - - - -
27/05:30pm 14.0 SW 32 37 1008.2 - 3.6 - - - - - - -
27/05:09pm 13.2 SW 34 51 1007.7 - 3.4 - - - - - - -
27/05:00pm 14.2 SW 35 41 1008.0 - 3.4 - - - - - - -
27/04:30pm 13.9 SW 31 37 1007.5 - 3.4 - - - - - - -
27/04:00pm 13.9 SW 36 43 1007.1 - 3.4 - - - - - - -
27/03:30pm 12.8 SW 35 47 1006.7 - 3.4 Rain - - - - - -
27/03:08pm 13.8 WSW 33 44 1006.0 - 2.8 - - - - - - -
27/03:00pm 13.8 WSW 33 40 1006.4 - 2.8 - - - - - - -
27/02:30pm 13.2 WSW 32 38 1006.3 - 2.8 - - - - - - -
27/02:13pm 12.4 SW 32 42 1006.5 - 2.8 - - - - - - -
27/02:00pm 14.0 WSW 31 37 1006.2 - 2.2 - - - - - - -
27/01:35pm 12.3 WSW 36 46 1006.4 - 2.2 - - - - - - -
27/01:30pm 12.1 WSW 35 46 1006.0 - 2.2 - - - - - - -
27/01:25pm 14.0 WSW 31 41 1006.1 - 2.2 - - - - - - -
27/01:00pm 13.8 WSW 34 40 1006.3 - 2.2 - - - - - - -
27/12:34pm 14.0 WSW 32 42 1006.2 - 2.2 - - - - - - -
27/12:30pm 13.8 WSW 33 38 1006.4 - 2.2 - - - - - - -
27/12:00pm 14.1 WSW 35 48 1006.4 - 2.2 - - - - - - -
27/11:48am 13.6 WSW 27 39 1006.6 - 2.2 - - - - - - -
27/11:30am 12.9 WSW 28 33 1007.1 - 2.2 - - - - - - -
27/11:13am 11.8 WSW 28 38 1007.3 - 2.2 - - - - - - -
27/11:00am 10.9 WSW 37 60 1007.5 - 2.2 - - - - - - -
27/10:57am 10.5 WSW 37 60 1007.6 - 2.2 - - - - - - -
27/10:52am 10.7 WSW 33 60 1007.2 - 1.6 - - - - - - -
27/10:51am 12.3 WSW 31 60 1007.2 - 1.6 - - - - - - -
27/10:50am 12.6 WSW 29 39 1007.7 - 1.6 - - - - - - -
27/10:30am 12.0 WSW 31 40 1007.2 - 1.6 - - - - - - -
27/10:23am 12.4 WSW 35 45 1007.3 - 1.6 - - - - - - -
27/10:00am 11.2 W 31 53 1006.9 - 1.4 - - - - - - -
27/09:59am 10.9 W 29 53 1006.6 - 1.2 - - - - - - -
27/09:58am 11.5 W 26 46 1006.8 - 1.2 - - - - - - -
27/09:56am 12.9 W 22 41 1007.3 - 1.2 - - - - - - -
27/09:40am 11.9 W 24 31 1007.7 - 1.0 - - - - - - -
27/09:30am 10.4 W 31 51 1007.5 - 8.8 Rain - - - - - -
27/09:29am 10.3 W 30 51 1007.2 - 8.6 - - - - - - -
27/09:26am 13.8 W 27 37 1007.5 - 8.0 - - - - - - -
27/09:00am 14.0 W 28 32 1007.2 - 7.8 - - - - - - -
27/08:30am 14.8 WSW 26 33 1006.8 - 7.8 - - - - - - -
27/08:00am 14.4 WSW 22 30 1006.9 - 7.8 - - - - - - -
27/07:48am 13.1 WSW 28 43 1007.1 - 7.8 - - - - - - -
27/07:44am 13.8 W 26 43 1006.4 - 7.8 - - - - - - -
27/07:43am 14.5 W 25 40 1006.8 - 7.8 - - - - - - -
27/07:30am 15.1 WSW 26 31 1007.0 - 7.8 - - - - - - -
27/07:00am 14.9 WSW 27 33 1006.7 - 7.8 - - - - - - -
27/06:30am 14.8 WSW 29 34 1007.0 - 7.8 - - - - - - -
27/06:00am 14.9 WSW 28 33 1007.2 - 7.8 - - - - - - -
27/05:30am 14.7 WSW 29 35 1007.2 - 7.8 - - - - - - -
27/05:00am 14.5 W 29 34 1007.0 - 7.8 - - - - - - -
27/04:30am 14.4 W 22 32 1007.4 - 6.8 - - - - - - -
27/04:00am 15.2 W 27 33 1007.4 - 6.8 - - - - - - -
27/03:30am 14.9 WNW 26 30 1007.7 - 6.8 - - - - - - -
27/03:00am 14.5 WNW 24 28 1007.8 - 6.8 - - - - - - -
27/02:30am 13.6 WNW 22 30 1007.7 - 6.8 - - - - - - -
27/02:23am 13.5 NW 17 27 1008.0 - 6.6 - - - - - - -
27/02:00am 14.1 NW 20 29 1008.2 - 5.2 - - - - - - -
27/01:39am 13.4 NNW 21 31 1008.6 - 4.2 - - - - - - -
27/01:30am 13.7 NNW 23 31 1008.4 - 3.4 - - - - - - -
27/01:00am 14.9 NNW 18 22 1008.8 - 2.6 - - - - - - -
27/12:30am 13.9 NNW 14 17 1009.4 - 2.6 Recent precip. - - - - - -
27/12:00am 13.7 NNW 18 25 1009.6 - 2.6 - - - - - - -
 
Date/Time
EST
Temp

°C
Wind Pressure Rain
since 9am
mm
Weather Cloud Vis
km
Sea
Height
m
Swell
Dir
 
Speed
knots
Gust
knots
hPa Trend Height
m
Period
s
Dir
26/11:59pm 13.8 NW 18 25 1009.7 - 2.6 - - - - - - -
26/11:49pm 13.6 NNW 17 25 1009.8 - 1.2 - - - - - - -
26/11:30pm 14.3 NNW 14 17 1009.8 - 0.0 - - - - - - -
26/11:00pm 14.9 NNW 14 16 1010.1 - 0.0 - - - - - - -
26/10:30pm 14.9 NNW 14 16 1010.4 - 0.0 - - - - - - -
26/10:00pm 15.2 NW 10 13 1010.5 - 0.0 - - - - - - -
26/09:30pm 14.9 NNW 11 15 1010.7 - 0.0 - - - - - - -
26/09:00pm 14.9 NNW 12 15 1010.8 - 0.0 - - - - - - -
26/08:30pm 15.6 WNW 13 15 1011.1 - 0.0 - - - - - - -
26/08:00pm 15.5 WNW 13 15 1011.0 - 0.0 - - - - - - -
26/07:30pm 15.9 W 11 13 1010.7 - 0.0 - - - - - - -
26/07:00pm 15.8 WSW 12 15 1010.4 - 0.0 - - - - - - -
26/06:30pm 15.9 WSW 13 16 1010.3 - 0.0 - - - - - - -
26/06:00pm 15.8 W 14 17 1009.9 - 0.0 - - - - - - -
26/05:30pm 15.9 WSW 15 17 1009.7 - 0.0 - - - - - - -
26/05:00pm 16.0 WSW 15 18 1009.8 - 0.0 - - - - - - -
26/04:30pm 16.2 W 15 18 1009.7 - 0.0 - - - - - - -
26/04:00pm 16.5 WSW 14 16 1009.5 - 0.0 - - - - - - -
26/03:30pm 16.2 WSW 17 22 1009.3 - 0.0 - - - - - - -
26/03:00pm 16.9 W 17 20 1009.3 - 0.0 - - - - - - -
26/02:30pm 16.4 W 16 19 1009.1 - 0.0 - - - - - - -
26/02:00pm 16.8 W 14 16 1009.1 - 0.0 - - - - - - -
26/01:30pm 15.8 WSW 15 18 1009.5 - 0.0 - - - - - - -
26/01:00pm 16.1 W 15 19 1009.8 - 0.0 - - - - - - -
26/12:30pm 16.7 W 14 18 1009.8 - 0.0 - - - - - - -
26/12:00pm 16.3 WSW 14 16 1010.1 - 0.0 - - - - - - -
26/11:30am 15.5 WSW 12 14 1010.1 - 0.0 - - - - - - -
26/11:00am 16.1 WSW 14 17 1010.3 - 0.0 - - - - - - -
26/10:30am 15.9 WSW 15 18 1010.0 - 0.0 - - - - - - -

Other Formats:

Comma delimited format used in spreadsheet applications
http://www.bom.gov.au/fwo/IDT60701/IDT60701.94804.axf

JavaScript Object Notation format (JSON) in row-major order
http://www.bom.gov.au/fwo/IDT60701/IDT60701.94804.json